Maxim, Georgia
Current Conditions -  °F | °C
As of 7:55 PM on Tuesday 21 Oct 2014 (Local Time) from KHQU Reporting Station
Clear Clear  
Wind Chill: 65°   Ceiling: Unl
Heat Index: 65°   Visibility: 10mi
Dew Point: 58°   Wind: 6mph
Humidity: 76%   Direction: 280°W
Pressure: 29.97"   Gusts: NA
Location:  33.7816°N, 82.4511°W
Report Text: KHQU 212355Z AUTO 28005KT 10SM CLR 19/14 A2997 RMK AO1 T01860142 10258 20183
Loading
Personal Weather Stations






























Interactive Weather Map
Tropical Storm Tracking
New forecast layout! Learn more

10-Day Weather Forecast

Advertisements
Track Severe Weather on mobile